CheckWX is a tool to help pilots better visualize weather data.  It is not intended as a substitute for an official pre-flight weather briefing.

13:18:37 UTC

EFKT TAF
Kittila Airport
Kittila, Finland
TAF EFKT 211123Z 2112/2121 34007KT CAVOK TEMPO 2112/2115 SHRA FEW020CB

Sep-21@
12:00 UTC

Sep-21 @ 12:00 UTC

Sep-21@
21:00 UTC

Sep-21 @ 21:00 UTC

TAF EFKT 211123Z 2112/2121 34007KT CAVOK
Wind
  • 340° at 7 KTS
Conditions
No significant weather
Cloud Levels
  • No significant clouds

Sep-21@
12:00 UTC

Sep-21 @ 12:00 UTC

Sep-21@
15:00 UTC

Sep-21 @ 15:00 UTC

TEMPO 2112/2115 SHRA FEW020CB

Temporary

Temporary Changes expected for less than half the time period

Conditions
Rain
Cloud Levels
  • Few at 2,000' AGL